Time;durP1;ratioP1;P1;durP2;ratioP2;P2;SDS_P1;SDS_P2;PMS_P1;PMS_P2;Temp;Humidity;BMP_temperature;BMP_pressure;BME280_temperature;BME280_humidity;BME280_pressure;Samples;Min_cycle;Max_cycle;Signal;HPM_P1;HPM_P2
2021/04/27 00:00:16;;;;;;;14.87;9.60;;;;;;;4.87;51.00;100217.08;1650637;85;21187;-85
2021/04/27 00:02:44;;;;;;;12.40;8.20;;;;;;;4.90;50.96;100215.46;1660246;85;21610;-85
2021/04/27 00:05:15;;;;;;;18.87;11.87;;;;;;;4.92;50.88;100220.09;1652520;85;21156;-87
2021/04/27 00:07:45;;;;;;;21.93;11.73;;;;;;;4.94;50.96;100222.09;1653328;85;21269;-86
2021/04/27 00:10:15;;;;;;;20.97;13.30;;;;;;;4.91;50.89;100217.10;1657234;85;21383;-84
2021/04/27 00:12:43;;;;;;;27.20;15.33;;;;;;;4.86;51.20;100212.30;1668359;84;21531;-85
2021/04/27 00:15:21;;;;;;;26.13;15.33;;;;;;;4.82;51.40;100210.10;1650318;85;21234;-85
2021/04/27 00:17:49;;;;;;;;;;;;;;;4.80;51.60;100212.07;1659962;85;21145;-86
2021/04/27 00:20:20;;;;;;;44.97;20.87;;;;;;;4.76;51.60;100207.58;1653284;85;20192;-86
2021/04/27 00:22:47;;;;;;;36.83;20.90;;;;;;;4.68;51.76;100208.36;1659089;85;21086;-86
2021/04/27 00:25:15;;;;;;;33.13;19.40;;;;;;;4.67;51.76;100212.46;1664647;85;21207;-86
2021/04/27 00:27:46;;;;;;;31.67;19.43;;;;;;;4.66;51.77;100214.78;1655236;85;21188;-85
2021/04/27 00:30:13;;;;;;;26.17;16.73;;;;;;;4.63;51.83;100227.81;1641381;86;21191;-85
2021/04/27 00:32:40;;;;;;;26.07;17.47;;;;;;;4.61;52.36;100227.10;1657690;85;21178;-86
2021/04/27 00:35:10;;;;;;;21.90;13.80;;;;;;;4.60;52.50;100226.78;1646504;85;21058;-85
2021/04/27 00:37:39;;;;;;;16.13;9.60;;;;;;;4.60;52.79;100232.56;1624185;87;21352;-86
2021/04/27 00:40:08;;;;;;;15.73;9.80;;;;;;;4.59;52.83;100229.56;1645924;86;21212;-84
2021/04/27 00:42:41;;;;;;;8.60;6.43;;;;;;;4.62;52.79;100227.95;1625554;87;21221;-84
2021/04/27 00:45:12;;;;;;;7.83;5.30;;;;;;;4.62;52.77;100233.23;1628451;86;21110;-81
2021/04/27 00:47:39;;;;;;;7.43;4.77;;;;;;;4.59;52.80;100233.53;1650956;86;21191;-85
2021/04/27 00:50:11;;;;;;;5.73;4.43;;;;;;;4.56;52.75;100241.73;1646708;86;21192;-87
2021/04/27 00:52:42;;;;;;;7.57;4.93;;;;;;;4.56;52.91;100233.35;1656172;86;21295;-86
2021/04/27 00:55:11;;;;;;;4.70;4.30;;;;;;;4.56;52.91;100238.62;1656697;84;22185;-86
2021/04/27 00:57:39;;;;;;;5.23;4.53;;;;;;;4.57;53.34;100236.81;1646927;86;21358;-85
2021/04/27 01:00:11;;;;;;;6.57;4.77;;;;;;;4.56;53.40;100231.18;1635398;86;21342;-84
2021/04/27 01:02:39;;;;;;;4.00;3.60;;;;;;;4.55;53.48;100236.95;1641443;86;22176;-83
2021/04/27 01:05:11;;;;;;;7.43;4.47;;;;;;;4.54;53.85;100241.06;1636898;86;21195;-85
2021/04/27 01:07:53;;;;;;;5.57;4.63;;;;;;;4.56;54.24;100245.23;1749380;79;23024;-85
2021/04/27 01:10:29;;;;;;;12.30;4.23;;;;;;;4.51;54.12;100250.13;1704999;82;21219;-84
2021/04/27 01:13:01;;;;;;;4.37;3.97;;;;;;;4.51;54.50;100251.94;1670382;83;22418;-85
2021/04/27 01:15:29;;;;;;;6.87;4.70;;;;;;;4.49;54.45;100250.27;1655937;85;21171;-86
2021/04/27 01:17:59;;;;;;;5.70;3.67;;;;;;;4.46;55.01;100247.10;1652054;86;21651;-84
2021/04/27 01:20:43;;;;;;;5.10;3.60;;;;;;;4.42;55.05;100245.25;1612806;87;21208;-84
2021/04/27 01:23:44;;;;;;;4.53;3.40;;;;;;;4.41;55.31;100247.56;1628601;85;21115;-81
2021/04/27 01:26:22;;;;;;;4.80;3.30;;;;;;;4.34;55.51;100244.36;1612735;87;21213;-85
2021/04/27 01:28:51;;;;;;;4.80;3.47;;;;;;;4.28;56.20;100249.75;1605855;87;21252;-90
2021/04/27 01:31:21;;;;;;;5.17;3.47;;;;;;;4.23;56.15;100246.72;1588321;88;21182;-90
2021/04/27 01:33:48;;;;;;;4.40;3.57;;;;;;;4.18;56.57;100248.50;1623266;86;21564;-90
2021/04/27 01:36:17;;;;;;;3.23;2.87;;;;;;;4.13;56.79;100248.61;1630251;86;21198;-90
2021/04/27 01:38:54;;;;;;;3.83;3.10;;;;;;;4.10;57.06;100243.94;1622648;86;21250;-84
2021/04/27 01:41:23;;;;;;;3.87;3.00;;;;;;;4.07;56.80;100245.58;1614117;86;21700;-90
2021/04/27 01:43:50;;;;;;;6.30;4.33;;;;;;;4.04;57.52;100250.31;1597114;88;21223;-90
2021/04/27 01:46:20;;;;;;;4.97;4.00;;;;;;;4.01;57.40;100250.13;1630659;86;22155;-90
2021/04/27 01:48:49;;;;;;;4.90;4.40;;;;;;;3.98;57.30;100250.91;1630858;86;21247;-90
2021/04/27 01:51:20;;;;;;;4.10;3.37;;;;;;;3.94;57.37;100251.69;1626253;86;21218;-90
2021/04/27 01:54:07;;;;;;;5.80;3.20;;;;;;;3.93;57.64;100257.93;1637841;86;21605;-90
2021/04/27 01:56:37;;;;;;;3.00;2.80;;;;;;;3.92;57.87;100254.97;1631677;85;21087;-90
2021/04/27 01:59:05;;;;;;;3.77;3.23;;;;;;;3.90;58.23;100255.11;1632023;86;21202;-91
2021/04/27 02:01:35;;;;;;;4.97;3.47;;;;;;;3.64;58.28;100218.05;1636047;86;21108;-90
2021/04/27 02:04:03;;;;;;;3.90;3.10;;;;;;;3.87;58.44;100255.89;1624998;86;21906;-90
2021/04/27 02:06:44;;;;;;;5.37;3.40;;;;;;;3.86;58.55;100255.53;1617240;86;21670;-90
2021/04/27 02:09:14;;;;;;;3.27;2.93;;;;;;;3.85;59.10;100260.48;1629054;86;21202;-90
2021/04/27 02:11:48;;;;;;;3.57;3.03;;;;;;;3.82;59.28;100259.45;1619518;86;21133;-90
2021/04/27 02:14:17;;;;;;;3.87;3.20;;;;;;;3.76;59.18;100258.72;1621678;86;21238;-89
2021/04/27 02:17:09;;;;;;;5.27;3.33;;;;;;;3.74;59.64;100267.27;1613358;86;22264;-90
2021/04/27 02:19:40;;;;;;;2.83;2.63;;;;;;;3.69;59.70;100261.95;1620818;86;21196;-90
2021/04/27 02:22:28;;;;;;;3.20;2.67;;;;;;;3.66;59.68;100261.41;1618950;86;21047;-90
2021/04/27 02:24:59;;;;;;;3.23;2.73;;;;;;;3.63;59.60;100269.09;1625574;86;21382;-90
2021/04/27 02:27:30;;;;;;;4.10;3.47;;;;;;;3.64;59.76;100268.63;1607980;87;21212;-89
2021/04/27 02:29:58;;;;;;;2.97;2.67;;;;;;;3.63;60.32;100265.64;1585426;87;21825;-90
2021/04/27 02:32:26;;;;;;;4.10;3.80;;;;;;;2.66;60.67;100113.55;1627895;86;21225;-90
2021/04/27 02:34:53;;;;;;;5.53;4.20;;;;;;;3.53;60.76;100256.95;1609938;87;21123;-91
2021/04/27 02:37:20;;;;;;;5.73;4.30;;;;;;;3.54;60.82;100260.73;1600367;86;21341;-90
2021/04/27 02:39:49;;;;;;;6.07;3.57;;;;;;;3.53;60.60;100260.41;1630290;86;21186;-90
2021/04/27 02:42:16;;;;;;;4.03;3.37;;;;;;;3.51;60.59;100261.86;1622813;86;21218;-91
2021/04/27 02:44:53;;;;;;;4.43;3.27;;;;;;;3.54;61.01;100263.87;1619583;85;21496;-91
2021/04/27 02:48:09;;;;;;;5.07;2.87;;;;;;;3.54;61.09;100258.59;1775188;78;23083;-86
2021/04/27 02:50:42;;;;;;;7.60;4.67;;;;;;;3.48;61.25;100260.00;1717006;81;21217;-84
2021/04/27 02:53:14;;;;;;;6.00;4.63;;;;;;;3.45;61.23;100262.95;1737257;80;21276;-85
2021/04/27 02:55:44;;;;;;;4.90;4.07;;;;;;;3.44;61.19;100262.59;1728268;79;21143;-88
2021/04/27 02:58:12;;;;;;;4.37;3.30;;;;;;;3.45;61.52;100265.09;1691891;83;21207;-93
2021/04/27 03:00:42;;;;;;;3.73;2.83;;;;;;;3.44;61.57;100259.95;1674765;83;22169;-95
2021/04/27 03:03:09;;;;;;;3.27;2.20;;;;;;;3.44;61.65;100262.59;1662563;84;21634;-86
2021/04/27 03:05:38;;;;;;;5.77;3.00;;;;;;;3.41;61.97;100266.81;1651909;84;21654;-91
2021/04/27 03:08:08;;;;;;;4.63;2.70;;;;;;;3.38;61.92;100260.05;1669014;84;21203;-91
2021/04/27 03:10:35;;;;;;;5.50;3.23;;;;;;;3.36;62.46;100259.36;1628435;86;21660;-90
2021/04/27 03:13:04;;;;;;;4.47;3.30;;;;;;;3.35;62.19;100258.17;1695442;83;21265;-90
2021/04/27 03:15:34;;;;;;;3.67;2.80;;;;;;;3.35;62.25;100259.49;1672499;84;21215;-90
2021/04/27 03:18:02;;;;;;;2.37;2.17;;;;;;;3.36;62.54;100255.91;1620253;86;21165;-90
2021/04/27 03:20:30;;;;;;;3.80;2.37;;;;;;;3.37;62.46;100264.13;1668387;84;21324;-91
2021/04/27 03:22:59;;;;;;;4.10;2.67;;;;;;;3.39;62.67;100262.18;1641390;85;21154;-89
2021/04/27 03:25:27;;;;;;;3.33;2.90;;;;;;;3.47;62.32;100260.99;1666055;85;21393;-91
2021/04/27 03:27:59;;;;;;;4.30;2.90;;;;;;;3.53;62.38;100262.22;1656250;84;21365;-91
2021/04/27 03:30:40;;;;;;;4.27;3.40;;;;;;;3.51;62.45;100265.82;1660959;85;22035;-90
2021/04/27 03:33:09;;;;;;;4.27;2.93;;;;;;;3.51;62.47;100268.95;1657213;83;21364;-90
2021/04/27 03:35:42;;;;;;;3.50;2.97;;;;;;;3.51;62.72;100267.14;1663371;85;21376;-91
2021/04/27 03:38:07;;;;;;;3.83;3.03;;;;;;;3.52;62.71;100261.37;1639288;86;21203;-90
2021/04/27 03:40:34;;;;;;;3.60;3.30;;;;;;;3.51;62.83;100261.05;1625889;86;21394;-89
2021/04/27 03:43:01;;;;;;;4.90;3.77;;;;;;;3.30;63.00;100229.14;1673438;84;21232;-90
2021/04/27 03:45:36;;;;;;;5.70;4.50;;;;;;;3.53;63.24;100268.31;1683957;83;21319;-91
2021/04/27 03:48:15;;;;;;;7.30;5.50;;;;;;;3.52;63.30;100270.59;1666812;83;21250;-92
2021/04/27 03:50:46;;;;;;;5.73;3.87;;;;;;;3.59;63.16;100272.18;1675570;84;21481;-91
2021/04/27 03:53:39;;;;;;;7.57;5.30;;;;;;;3.81;63.16;100273.12;1774527;79;23388;-91
2021/04/27 03:56:07;;;;;;;7.03;5.47;;;;;;;3.74;62.91;100272.54;1752596;80;21120;-87
2021/04/27 03:58:35;;;;;;;5.73;4.70;;;;;;;3.73;63.02;100278.31;1711700;81;21179;-88
2021/04/27 04:01:03;;;;;;;8.03;4.97;;;;;;;3.77;63.05;100275.72;1710244;82;21562;-88
2021/04/27 04:03:31;;;;;;;11.53;7.40;;;;;;;3.84;63.52;100277.27;1661864;83;21195;-85
2021/04/27 04:06:06;;;;;;;10.93;7.97;;;;;;;3.93;62.99;100272.44;1688009;83;21336;-93
2021/04/27 04:09:09;;;;;;;12.43;7.90;;;;;;;4.14;62.75;100273.99;1791244;78;23108;-92
2021/04/27 04:11:47;;;;;;;6.47;5.47;;;;;;;4.26;62.28;100274.95;1722351;80;21436;-90
2021/04/27 04:14:18;;;;;;;4.57;4.17;;;;;;;4.57;61.73;100281.19;1684169;83;21597;-91
2021/04/27 04:17:04;;;;;;;4.27;3.13;;;;;;;5.07;60.60;100267.92;1760118;79;23079;-87
2021/04/27 04:19:32;;;;;;;3.70;3.03;;;;;;;5.42;59.29;100269.61;1738145;80;21164;-90
2021/04/27 04:22:04;;;;;;;3.20;2.90;;;;;;;5.76;58.28;100270.11;1744086;82;21197;-90
2021/04/27 04:24:34;;;;;;;3.60;2.60;;;;;;;6.13;57.30;100270.80;1724794;80;21230;-89
2021/04/27 04:27:01;;;;;;;6.20;3.33;;;;;;;6.58;56.22;100276.19;1710611;82;21729;-89
2021/04/27 04:29:45;;;;;;;4.63;2.43;;;;;;;7.07;55.46;100268.23;1682090;83;21163;-89
2021/04/27 04:32:31;;;;;;;3.80;2.47;;;;;;;7.56;53.29;100262.83;1660969;84;21291;-92
2021/04/27 04:35:22;;;;;;;4.00;3.70;;;;;;;7.96;52.04;100262.85;1679064;85;21072;-93
2021/04/27 04:38:08;;;;;;;4.43;3.30;;;;;;;8.30;51.10;100257.69;1670121;85;21197;-93
2021/04/27 04:40:53;;;;;;;3.70;2.90;;;;;;;8.62;49.69;100259.84;1758942;79;23159;-94
2021/04/27 04:43:41;;;;;;;3.77;3.13;;;;;;;8.64;49.77;100262.63;1727910;82;21173;-95
2021/04/27 04:46:28;;;;;;;5.90;2.83;;;;;;;8.64;49.11;100262.63;1710836;82;21634;-90
2021/04/27 04:49:07;;;;;;;3.70;3.20;;;;;;;8.71;49.12;100260.92;1710663;82;21766;-87
2021/04/27 04:51:48;;;;;;;3.37;2.23;;;;;;;8.84;49.16;100266.98;1707540;83;21698;-91
2021/04/27 04:54:21;;;;;;;5.13;3.00;;;;;;;9.13;48.16;100272.86;1706197;82;21325;-82
2021/04/27 04:56:49;;;;;;;4.07;2.80;;;;;;;9.29;48.23;100272.41;1683538;79;21126;-83
2021/04/27 04:59:16;;;;;;;6.40;3.20;;;;;;;9.22;47.99;100275.45;1677155;84;21206;-84
2021/04/27 05:01:44;;;;;;;3.33;2.40;;;;;;;8.88;48.06;100272.25;1555789;88;21133;-83
2021/04/27 05:04:13;;;;;;;3.50;3.20;;;;;;;8.45;49.18;100273.73;1574563;89;21516;-85
2021/04/27 05:07:04;;;;;;;4.07;2.50;;;;;;;8.12;49.86;100285.86;1609993;87;21205;-84
2021/04/27 05:09:46;;;;;;;7.17;6.40;;;;;;;7.85;50.37;100278.64;1614476;87;21192;-84
2021/04/27 05:12:32;;;;;;;3.50;3.00;;;;;;;7.69;50.80;100281.37;1592976;88;21131;-85
2021/04/27 05:15:16;;;;;;;3.10;2.80;;;;;;;7.51;51.20;100290.86;1599857;88;21177;-84
2021/04/27 05:17:46;;;;;;;3.67;3.17;;;;;;;7.41;51.49;100289.73;1591316;88;21348;-84
2021/04/27 05:20:15;;;;;;;5.43;3.40;;;;;;;7.35;51.68;100291.73;1595135;88;21380;-84
2021/04/27 05:22:46;;;;;;;3.97;3.67;;;;;;;7.24;51.99;100291.58;1601782;87;21083;-84
2021/04/27 05:25:13;;;;;;;5.53;3.30;;;;;;;7.26;51.99;100294.06;1639592;85;21197;-84
2021/04/27 05:27:43;;;;;;;3.33;3.10;;;;;;;7.11;51.96;100260.28;1640318;86;21362;-84
2021/04/27 05:30:12;;;;;;;4.63;2.90;;;;;;;7.37;51.81;100293.72;1628174;86;21194;-83
2021/04/27 05:32:38;;;;;;;5.13;3.60;;;;;;;7.46;51.50;100290.06;1628636;86;21208;-84
2021/04/27 05:35:09;;;;;;;3.90;3.07;;;;;;;7.64;51.00;100289.02;1625971;85;21081;-83
2021/04/27 05:37:37;;;;;;;4.47;3.13;;;;;;;7.88;50.27;100290.77;1643509;86;21192;-83
2021/04/27 05:40:07;;;;;;;3.43;3.13;;;;;;;8.07;50.14;100292.99;1609804;88;21237;-84
2021/04/27 05:42:35;;;;;;;4.00;3.07;;;;;;;8.27;49.56;100289.90;1616549;88;21204;-81
2021/04/27 05:45:05;;;;;;;2.63;2.43;;;;;;;8.46;49.11;100290.84;1611676;87;21169;-86
2021/04/27 05:47:33;;;;;;;3.07;2.73;;;;;;;8.62;47.91;100297.86;1576724;89;21383;-82
2021/04/27 05:50:00;;;;;;;4.00;2.37;;;;;;;8.53;48.13;100288.28;1570080;90;21234;-81
2021/04/27 05:54:17;;;;;;;4.87;3.60;;;;;;;8.59;47.68;100284.95;1809102;77;22958;-81
2021/04/27 05:56:45;;;;;;;4.17;2.63;;;;;;;8.68;47.52;100285.22;1736332;80;21001;-82
2021/04/27 05:59:12;;;;;;;2.90;2.20;;;;;;;8.93;47.29;100283.19;1725527;81;21183;-81
2021/04/27 06:01:41;;;;;;;1.93;1.60;;;;;;;9.15;46.23;100286.83;1712952;82;21104;-80
2021/04/27 06:04:08;;;;;;;1.70;1.53;;;;;;;9.22;45.79;100286.09;1694028;83;21216;-80
2021/04/27 06:06:37;;;;;;;2.70;2.50;;;;;;;9.33;44.83;100279.01;1666574;84;21616;-83
2021/04/27 06:09:08;;;;;;;3.57;3.27;;;;;;;9.35;44.36;100288.95;1664521;86;21212;-81
2021/04/27 06:11:38;;;;;;;3.33;2.03;;;;;;;9.42;44.23;100282.39;1662445;83;21249;-80
2021/04/27 06:14:07;;;;;;;1.83;1.73;;;;;;;9.46;44.01;100281.86;1695609;83;21182;-82
2021/04/27 06:16:34;;;;;;;2.90;1.90;;;;;;;9.44;44.56;100289.20;1693420;83;21237;-81
2021/04/27 06:19:02;;;;;;;1.70;1.53;;;;;;;9.65;44.27;100280.48;1689238;83;21199;-79
2021/04/27 06:21:29;;;;;;;2.27;1.90;;;;;;;10.01;43.46;100282.91;1699760;83;22322;-81
2021/04/27 06:23:56;;;;;;;1.70;1.60;;;;;;;10.37;41.58;100280.27;1675416;84;21661;-80
2021/04/27 06:26:25;;;;;;;2.30;2.17;;;;;;;10.48;41.29;100276.30;1662124;85;21662;-82
2021/04/27 06:28:52;;;;;;;3.80;3.50;;;;;;;10.46;41.37;100274.33;1660878;86;21368;-79
2021/04/27 06:31:20;;;;;;;4.20;3.63;;;;;;;10.40;41.54;100270.59;1660117;85;21355;-78
2021/04/27 06:33:48;;;;;;;2.63;2.40;;;;;;;10.50;41.38;100278.27;1655748;84;21109;-78
2021/04/27 06:36:15;;;;;;;2.77;2.23;;;;;;;10.64;41.08;100277.87;1633520;86;21215;-78
2021/04/27 06:38:44;;;;;;;1.70;1.60;;;;;;;10.39;40.58;100244.94;1633534;86;21318;-75
2021/04/27 06:41:13;;;;;;;2.73;1.80;;;;;;;10.46;41.05;100273.00;1638567;86;21132;-77
2021/04/27 06:43:40;;;;;;;2.70;1.70;;;;;;;10.37;41.05;100271.47;1638518;86;21192;-77
2021/04/27 06:46:07;;;;;;;3.90;1.93;;;;;;;10.07;41.40;100237.70;1642334;85;21128;-77
2021/04/27 06:48:35;;;;;;;1.73;1.60;;;;;;;10.14;41.56;100277.73;1647487;85;21182;-76
2021/04/27 06:51:05;;;;;;;2.80;2.43;;;;;;;10.10;41.49;100279.95;1639975;85;21226;-77
2021/04/27 06:53:36;;;;;;;4.40;2.83;;;;;;;10.12;41.37;100288.57;1646759;85;21337;-76
2021/04/27 06:56:04;;;;;;;2.13;2.03;;;;;;;10.08;41.50;100279.82;1636885;84;21119;-76
2021/04/27 06:58:32;;;;;;;4.30;1.80;;;;;;;9.93;41.62;100275.33;1631340;86;21353;-76
2021/04/27 07:00:59;;;;;;;3.40;2.30;;;;;;;9.86;41.35;100277.08;1640837;85;21576;-77
2021/04/27 07:03:25;;;;;;;1.97;1.87;;;;;;;9.82;41.17;100276.31;1639206;85;21230;-77
2021/04/27 07:05:53;;;;;;;2.17;2.00;;;;;;;9.80;41.36;100280.48;1641848;85;21206;-75
2021/04/27 07:08:21;;;;;;;2.60;2.40;;;;;;;9.90;41.18;100280.20;1648972;85;21885;-77
2021/04/27 07:10:53;;;;;;;3.27;2.37;;;;;;;9.93;40.45;100276.66;1637331;85;21200;-77
2021/04/27 07:13:21;;;;;;;2.83;2.60;;;;;;;9.93;40.04;100276.66;1622218;87;21138;-76
2021/04/27 07:15:48;;;;;;;4.63;1.77;;;;;;;9.77;40.05;100276.86;1617354;87;21651;-79
2021/04/27 07:18:15;;;;;;;1.80;1.70;;;;;;;9.62;39.78;100278.70;1613066;87;21204;-76
2021/04/27 07:20:44;;;;;;;1.60;1.50;;;;;;;9.46;40.05;100278.38;1620760;87;21193;-76
2021/04/27 07:23:12;;;;;;;3.83;1.37;;;;;;;9.35;39.07;100286.30;1608923;87;21175;-78
2021/04/27 07:25:40;;;;;;;2.43;1.27;;;;;;;9.21;39.13;100287.09;1620361;87;21248;-77
2021/04/27 07:28:08;;;;;;;3.27;1.47;;;;;;;9.07;39.84;100290.05;1618059;87;21245;-86
2021/04/27 07:30:37;;;;;;;1.57;1.47;;;;;;;9.07;40.19;100284.73;1620839;87;21209;-79
2021/04/27 07:33:05;;;;;;;1.70;1.50;;;;;;;9.05;39.80;100285.42;1617359;86;21205;-79
2021/04/27 07:35:33;;;;;;;1.63;1.23;;;;;;;8.93;39.43;100281.04;1644950;86;21198;-79
2021/04/27 07:38:03;;;;;;;1.50;0.97;;;;;;;8.88;39.88;100284.72;1603558;87;21258;-80
2021/04/27 07:40:35;;;;;;;1.30;1.20;;;;;;;8.91;38.96;100289.19;1623285;86;21205;-78
2021/04/27 07:43:03;;;;;;;3.27;1.23;;;;;;;8.91;39.28;100290.99;1641404;86;21193;-79
2021/04/27 07:45:33;;;;;;;4.00;0.90;;;;;;;8.90;39.49;100278.21;1631943;84;21122;-79
2021/04/27 07:48:07;;;;;;;1.47;0.80;;;;;;;8.89;39.33;100291.20;1624639;86;21695;-80
2021/04/27 07:50:36;;;;;;;1.47;0.63;;;;;;;8.82;39.69;100290.77;1632484;86;21234;-79
2021/04/27 07:53:05;;;;;;;1.50;0.90;;;;;;;8.75;40.09;100281.33;1619788;87;21177;-78
2021/04/27 07:55:33;;;;;;;2.87;1.00;;;;;;;8.75;39.58;100292.78;1608810;84;21114;-78
2021/04/27 07:58:03;;;;;;;4.13;0.87;;;;;;;8.65;39.80;100290.05;1614702;87;21628;-78
2021/04/27 08:04:54;;;;;;;0.50;0.50;;;;;;;8.65;39.58;100278.09;1646007;85;21165;-80
2021/04/27 08:07:21;;;;;;;1.43;1.03;;;;;;;8.67;39.03;100286.20;1639472;86;21212;-79
2021/04/27 08:09:48;;;;;;;0.77;0.67;;;;;;;8.65;38.35;100284.23;1631231;87;21217;-81
2021/04/27 08:12:15;;;;;;;1.13;0.53;;;;;;;8.64;38.79;100283.07;1622299;86;21145;-80
2021/04/27 08:14:42;;;;;;;1.97;0.87;;;;;;;8.62;38.37;100275.27;1595647;87;21355;-83
2021/04/27 08:17:12;;;;;;;1.50;1.20;;;;;;;8.56;38.77;100278.64;1622281;87;21372;-82
2021/04/27 08:19:42;;;;;;;2.20;1.30;;;;;;;8.50;39.04;100276.70;1619835;87;21619;-83
2021/04/27 08:22:10;;;;;;;1.23;1.13;;;;;;;8.51;39.01;100273.02;1616797;87;21209;-82
2021/04/27 08:24:43;;;;;;;3.80;1.70;;;;;;;8.47;39.52;100267.75;1605174;88;21416;-82
2021/04/27 08:27:08;;;;;;;2.20;1.47;;;;;;;8.36;39.41;100273.77;1604866;88;21811;-82
2021/04/27 08:29:35;;;;;;;2.20;1.90;;;;;;;8.32;40.09;100263.14;1598083;88;21860;-81
2021/04/27 08:32:04;;;;;;;4.33;2.27;;;;;;;8.41;39.65;100268.42;1605282;88;21178;-83
2021/04/27 08:34:32;;;;;;;4.43;1.40;;;;;;;8.54;39.75;100257.56;1613149;85;21191;-84
2021/04/27 08:36:59;;;;;;;2.00;1.17;;;;;;;8.71;39.55;100259.59;1630606;86;21169;-82
2021/04/27 08:39:29;;;;;;;0.90;0.80;;;;;;;8.85;38.98;100254.50;1629704;88;21234;-83
2021/04/27 08:41:57;;;;;;;1.57;1.17;;;;;;;8.90;38.43;100252.96;1614491;86;21380;-83
2021/04/27 08:44:25;;;;;;;1.20;1.00;;;;;;;8.91;38.44;100253.30;1628607;85;21095;-85
2021/04/27 08:46:51;;;;;;;2.60;0.90;;;;;;;8.88;38.57;100249.66;1641315;85;21229;-84
2021/04/27 08:49:19;;;;;;;1.63;0.77;;;;;;;8.87;38.23;100251.16;1634959;85;21331;-85
2021/04/27 08:51:47;;;;;;;1.07;0.60;;;;;;;9.00;37.60;100262.01;1646984;85;21639;-84
2021/04/27 08:54:18;;;;;;;2.37;0.40;;;;;;;9.14;37.45;100250.59;1632597;86;21217;-85
2021/04/27 08:56:47;;;;;;;1.23;0.63;;;;;;;9.28;36.78;100254.27;1637636;84;21066;-85
2021/04/27 08:59:15;;;;;;;1.90;0.67;;;;;;;9.37;36.38;100245.70;1658515;85;21202;-85
2021/04/27 09:01:46;;;;;;;0.83;0.50;;;;;;;9.28;36.37;100253.45;1639067;85;21082;-84
2021/04/27 09:04:48;;;;;;;1.57;1.10;;;;;;;9.24;36.91;100260.14;1640726;85;21670;-83
2021/04/27 09:07:20;;;;;;;2.30;1.50;;;;;;;9.32;36.68;100252.06;1631511;86;21205;-84
2021/04/27 09:09:51;;;;;;;3.77;2.17;;;;;;;9.30;35.54;100246.11;1653200;85;21510;-85
2021/04/27 09:12:26;;;;;;;1.97;1.37;;;;;;;9.21;36.61;100240.06;1642072;85;21219;-84
2021/04/27 09:14:58;;;;;;;1.93;1.17;;;;;;;9.24;36.93;100249.50;1642294;85;21128;-85
2021/04/27 09:17:29;;;;;;;4.67;1.17;;;;;;;9.26;36.32;100246.97;1641851;86;21193;-85
2021/04/27 09:19:59;;;;;;;1.20;0.80;;;;;;;9.38;35.69;100245.20;1644749;85;21181;-85
2021/04/27 09:22:33;;;;;;;1.13;0.83;;;;;;;9.51;34.76;100240.91;1628517;84;21643;-85
2021/04/27 09:25:07;;;;;;;1.77;1.17;;;;;;;9.59;34.54;100245.78;1623186;86;21732;-84
2021/04/27 09:27:44;;;;;;;3.33;0.73;;;;;;;9.58;34.39;100226.86;1638681;86;21635;-84
2021/04/27 09:30:26;;;;;;;0.93;0.40;;;;;;;9.53;34.81;100236.22;1635481;85;21307;-83
2021/04/27 09:33:04;;;;;;;0.80;0.60;;;;;;;9.65;35.22;100226.45;1630919;86;21174;-84
2021/04/27 09:35:41;;;;;;;1.87;1.02;;;;;;;9.79;34.96;100235.41;1663213;85;21622;-85
2021/04/27 09:38:26;;;;;;;2.10;1.23;;;;;;;9.77;34.41;100232.93;1613008;87;21180;-84
2021/04/27 09:41:02;;;;;;;4.20;0.97;;;;;;;9.72;34.89;100243.33;1639593;87;21266;-84
2021/04/27 09:43:40;;;;;;;2.10;0.80;;;;;;;9.74;34.88;100240.80;1642922;87;21345;-83
2021/04/27 09:46:15;;;;;;;1.33;0.80;;;;;;;9.85;34.30;100239.50;1650689;84;21119;-84
2021/04/27 09:48:50;;;;;;;0.77;0.70;;;;;;;9.82;34.18;100235.88;1660594;85;21179;-82
2021/04/27 09:51:31;;;;;;;1.00;0.90;;;;;;;9.74;34.73;100241.31;1655257;85;21180;-85
2021/04/27 09:54:05;;;;;;;0.80;0.80;;;;;;;9.74;35.66;100238.13;1668450;84;21224;-83
2021/04/27 09:56:51;;;;;;;0.67;0.40;;;;;;;9.80;35.58;100236.56;1664061;85;21061;-83
2021/04/27 09:59:30;;;;;;;1.40;0.60;;;;;;;9.84;35.42;100224.53;1681637;85;21647;-83
2021/04/27 10:02:06;;;;;;;1.00;0.60;;;;;;;9.88;35.19;100227.64;1664817;84;21136;-82
2021/04/27 10:04:35;;;;;;;1.30;0.55;;;;;;;9.85;34.50;100230.19;1671106;84;21462;-83
2021/04/27 10:07:02;;;;;;;0.53;0.43;;;;;;;9.89;34.68;100228.80;1676845;84;21623;-83
2021/04/27 10:09:32;;;;;;;0.80;0.50;;;;;;;9.98;33.92;100221.50;1671529;84;21202;-82
2021/04/27 10:12:00;;;;;;;1.13;0.70;;;;;;;9.98;34.01;100226.83;1666468;84;21092;-83
2021/04/27 10:14:27;;;;;;;0.90;0.60;;;;;;;10.00;33.82;100224.84;1671417;84;21346;-83
2021/04/27 10:16:56;;;;;;;0.90;0.90;;;;;;;9.88;33.02;100227.13;1666202;84;21191;-83
2021/04/27 10:19:23;;;;;;;0.70;0.53;;;;;;;9.72;33.34;100227.36;1653593;84;21355;-83
2021/04/27 10:21:52;;;;;;;1.57;0.70;;;;;;;9.64;34.02;100226.11;1660501;84;22347;-84
2021/04/27 10:24:23;;;;;;;1.60;1.27;;;;;;;9.67;34.05;100223.91;1652360;84;21135;-83
2021/04/27 10:26:53;;;;;;;2.43;0.93;;;;;;;9.75;33.68;100221.65;1666231;84;21317;-83
2021/04/27 10:29:25;;;;;;;3.00;0.80;;;;;;;9.81;33.85;100222.23;1656712;84;21349;-83
2021/04/27 10:32:20;;;;;;;2.47;1.50;;;;;;;9.87;34.21;100214.84;1669624;84;21147;-83
2021/04/27 10:35:02;;;;;;;1.03;0.73;;;;;;;9.95;32.00;100219.23;1660637;84;21538;-84
2021/04/27 10:37:51;;;;;;;2.50;1.10;;;;;;;9.96;32.43;100213.40;1669052;84;21326;-83
2021/04/27 10:40:45;;;;;;;1.60;1.00;;;;;;;10.01;32.81;100219.81;1663840;84;21148;-87
2021/04/27 10:43:25;;;;;;;2.40;1.10;;;;;;;10.07;32.67;100215.58;1650129;86;21195;-86
2021/04/27 10:46:00;;;;;;;4.20;0.70;;;;;;;10.12;32.66;100214.00;1662841;84;21091;-86
2021/04/27 10:48:40;;;;;;;4.93;1.23;;;;;;;10.14;32.32;100215.15;1664295;84;21332;-86
2021/04/27 10:51:28;;;;;;;1.43;1.33;;;;;;;10.13;32.54;100207.67;1664654;84;21191;-85
2021/04/27 10:54:20;;;;;;;0.63;0.50;;;;;;;9.98;32.23;100187.41;1671206;84;21682;-87
2021/04/27 10:57:08;;;;;;;2.00;0.77;;;;;;;10.13;31.78;100209.48;1664932;84;21653;-86
2021/04/27 10:59:56;;;;;;;0.95;0.57;;;;;;;10.05;31.78;100218.42;1664334;84;21180;-86
2021/04/27 11:02:30;;;;;;;0.70;0.70;;;;;;;9.98;31.52;100208.70;1675558;84;21129;-85
2021/04/27 11:08:12;;;;;;;1.20;0.37;;;;;;;10.02;31.59;100205.98;1795370;78;23369;-86
2021/04/27 11:10:46;;;;;;;0.53;0.53;;;;;;;9.98;31.54;100207.38;1769375;79;21646;-86
2021/04/27 11:13:14;;;;;;;0.70;0.60;;;;;;;9.96;31.46;100202.23;1742818;80;21697;-85
2021/04/27 11:15:44;;;;;;;2.73;1.20;;;;;;;9.90;31.92;100190.49;1744799;81;21709;-86
2021/04/27 11:18:17;;;;;;;2.67;0.90;;;;;;;9.97;32.08;100197.75;1756311;80;21196;-86
2021/04/27 11:20:59;;;;;;;1.17;0.60;;;;;;;10.09;31.94;100201.56;1760817;78;21595;-85
2021/04/27 11:23:50;;;;;;;0.80;0.57;;;;;;;10.09;31.32;100196.23;1696384;80;21282;-86
2021/04/27 11:26:40;;;;;;;2.37;1.03;;;;;;;10.05;31.92;100196.30;1689118;84;21224;-86
2021/04/27 11:29:18;;;;;;;0.80;0.60;;;;;;;10.02;31.36;100194.84;1680599;84;21245;-85
2021/04/27 11:32:09;;;;;;;0.80;0.57;;;;;;;9.98;31.62;100187.41;1669340;84;21440;-84
2021/04/27 11:34:57;;;;;;;0.87;0.40;;;;;;;9.96;32.32;100192.09;1699589;82;21186;-85
2021/04/27 11:37:40;;;;;;;0.80;0.50;;;;;;;9.96;32.78;100186.77;1686184;83;21208;-84
2021/04/27 11:40:23;;;;;;;0.93;0.40;;;;;;;9.89;32.73;100187.53;1689627;83;21299;-83
2021/04/27 11:43:10;;;;;;;0.50;0.30;;;;;;;9.78;33.00;100189.86;1681148;83;21367;-84
2021/04/27 11:45:51;;;;;;;3.17;0.70;;;;;;;9.75;33.55;100182.54;1712218;83;21793;-85
2021/04/27 11:48:23;;;;;;;0.90;0.67;;;;;;;9.81;33.17;100190.28;1677882;83;21361;-85
2021/04/27 11:50:51;;;;;;;2.77;0.90;;;;;;;9.82;32.98;100181.81;1700828;83;21209;-85
2021/04/27 11:53:21;;;;;;;1.30;0.63;;;;;;;9.82;33.06;100182.63;1706998;82;21231;-86
2021/04/27 11:55:53;;;;;;;0.97;0.60;;;;;;;9.82;32.71;100181.30;1674080;82;21606;-86
2021/04/27 11:58:33;;;;;;;0.80;0.63;;;;;;;9.83;32.77;100184.78;1702204;82;21168;-85
2021/04/27 12:01:03;;;;;;;1.00;0.80;;;;;;;9.86;32.63;100181.75;1696947;82;21645;-85
2021/04/27 12:03:40;;;;;;;0.60;0.60;;;;;;;9.89;32.30;100183.53;1698775;82;21182;-85
2021/04/27 12:06:16;;;;;;;1.70;0.43;;;;;;;9.93;32.38;100174.16;1680180;83;22280;-85